Time;durP1;ratioP1;P1;durP2;ratioP2;P2;SDS_P1;SDS_P2;PMS_P1;PMS_P2;Temp;Humidity;BMP_temperature;BMP_pressure;BME280_temperature;BME280_humidity;BME280_pressure;Samples;Min_cycle;Max_cycle;Signal;HPM_P1;HPM_P2
2022/10/29 00:00:54;;;;;;;9.20;5.68;;;;;;;28.40;23.65;98865.25;5011630;28;20037;-79
2022/10/29 00:03:21;;;;;;;8.45;5.05;;;;;;;28.40;23.87;98875.78;5014585;28;20033;-79
2022/10/29 00:06:01;;;;;;;9.13;5.78;;;;;;;28.32;23.89;98868.72;5015110;28;20029;-79
2022/10/29 00:08:29;;;;;;;8.23;5.03;;;;;;;28.02;24.34;98870.72;5014167;28;20044;-79
2022/10/29 00:11:04;;;;;;;10.52;7.28;;;;;;;27.65;25.28;98878.88;5012953;28;20045;-79
2022/10/29 00:13:30;;;;;;;11.23;7.90;;;;;;;28.00;25.69;98878.84;5015108;28;20037;-79
2022/10/29 00:15:56;;;;;;;11.50;7.95;;;;;;;28.29;25.53;98880.91;5007714;28;20049;-79
2022/10/29 00:18:22;;;;;;;10.30;6.93;;;;;;;28.61;23.82;98880.88;5012341;28;20092;-79
2022/10/29 00:20:48;;;;;;;7.00;5.32;;;;;;;28.98;23.11;98868.91;5015066;28;20077;-79
2022/10/29 00:23:14;;;;;;;10.65;6.32;;;;;;;29.26;21.99;98867.28;5014542;28;20042;-79
2022/10/29 00:25:40;;;;;;;8.05;6.22;;;;;;;28.64;22.16;98868.66;5014373;28;20034;-79
2022/10/29 00:28:06;;;;;;;7.13;4.72;;;;;;;28.54;22.40;98864.09;5006976;28;20042;-79
2022/10/29 00:30:34;;;;;;;7.45;5.18;;;;;;;28.64;22.49;98857.34;5029829;28;20030;-80
2022/10/29 00:33:00;;;;;;;8.07;5.55;;;;;;;28.64;21.86;98851.72;5012341;28;20072;-80
2022/10/29 00:35:26;;;;;;;5.85;4.47;;;;;;;28.55;22.12;98849.50;5012584;28;20040;-80
2022/10/29 00:37:52;;;;;;;5.90;4.68;;;;;;;28.63;21.90;98847.31;5004326;28;20038;-79
2022/10/29 00:40:18;;;;;;;5.45;4.50;;;;;;;28.74;21.93;98850.63;5014858;28;20522;-80
2022/10/29 00:42:44;;;;;;;7.32;4.80;;;;;;;28.77;22.03;98846.91;5000997;28;20044;-79
2022/10/29 00:45:19;;;;;;;6.38;4.57;;;;;;;28.57;22.90;98843.41;4999920;28;20395;-80
2022/10/29 00:47:50;;;;;;;5.20;4.05;;;;;;;28.45;22.64;98842.13;5013691;28;20041;-79
2022/10/29 00:50:18;;;;;;;8.32;5.65;;;;;;;28.33;23.15;98839.25;5005474;28;20035;-79
2022/10/29 00:52:48;;;;;;;7.05;5.15;;;;;;;28.21;23.60;98846.44;5013319;28;20034;-79
2022/10/29 00:55:16;;;;;;;7.43;5.53;;;;;;;27.59;24.34;98849.56;5014345;28;20061;-79
2022/10/29 00:57:48;;;;;;;9.70;5.55;;;;;;;27.98;24.42;98847.38;5012654;28;20928;-80
2022/10/29 01:00:16;;;;;;;7.55;5.70;;;;;;;28.52;24.06;98835.50;5011563;28;20074;-79
2022/10/29 01:02:44;;;;;;;6.53;5.00;;;;;;;28.89;23.29;98826.38;5028713;28;20037;-80
2022/10/29 01:05:12;;;;;;;7.50;5.10;;;;;;;29.18;22.55;98829.94;5013230;28;20036;-79
2022/10/29 01:07:39;;;;;;;6.53;4.68;;;;;;;29.33;21.74;98835.94;5007972;28;20045;-79
2022/10/29 01:10:05;;;;;;;6.78;4.55;;;;;;;29.35;21.64;98833.44;5013993;28;20140;-79
2022/10/29 01:13:10;;;;;;;7.78;4.45;;;;;;;29.29;22.23;98841.69;5013310;28;20092;-80
2022/10/29 01:16:00;;;;;;;6.65;4.53;;;;;;;29.32;22.29;98825.84;5008902;28;20046;-79
2022/10/29 01:18:54;;;;;;;5.40;4.10;;;;;;;29.27;22.20;98832.88;5010526;28;20087;-79
2022/10/29 01:21:41;;;;;;;7.55;5.50;;;;;;;29.26;22.46;98830.50;5015899;28;20068;-80
2022/10/29 01:24:30;;;;;;;5.97;4.10;;;;;;;29.16;22.71;98829.56;5011099;28;20030;-79
2022/10/29 01:27:18;;;;;;;5.25;4.25;;;;;;;29.24;22.75;98830.19;4997386;28;20114;-79
2022/10/29 01:30:10;;;;;;;5.32;4.25;;;;;;;28.89;22.49;98820.72;5013138;28;20509;-79
2022/10/29 01:32:57;;;;;;;4.80;3.70;;;;;;;28.95;22.13;98818.09;5000110;28;20085;-79
2022/10/29 01:35:30;;;;;;;6.97;4.82;;;;;;;28.79;22.41;98821.00;5013363;28;20037;-79
2022/10/29 01:38:37;;;;;;;4.03;3.05;;;;;;;28.79;22.54;98821.00;5005858;28;20034;-79
2022/10/29 01:41:26;;;;;;;6.78;4.68;;;;;;;29.09;21.96;98826.16;5007615;28;20076;-79
2022/10/29 01:44:28;;;;;;;5.38;3.75;;;;;;;29.22;21.79;98818.53;5033322;28;20037;-79
2022/10/29 01:47:02;;;;;;;7.30;4.10;;;;;;;29.29;21.35;98809.81;5011532;28;20050;-79
2022/10/29 01:49:35;;;;;;;6.97;4.03;;;;;;;29.22;21.59;98810.81;5012058;28;20042;-79
2022/10/29 01:52:05;;;;;;;4.68;3.90;;;;;;;29.24;21.76;98816.03;5011726;28;20052;-79
2022/10/29 01:54:31;;;;;;;4.38;3.88;;;;;;;28.81;21.96;98813.66;4998189;28;20031;-79
2022/10/29 01:56:59;;;;;;;5.40;4.10;;;;;;;28.44;22.14;98815.13;5016469;28;20042;-79
2022/10/29 01:59:30;;;;;;;5.70;4.03;;;;;;;28.43;22.79;98805.03;5012739;28;20030;-79
2022/10/29 02:02:17;;;;;;;7.28;4.35;;;;;;;28.63;22.32;98799.28;5012418;28;20026;-79
2022/10/29 02:05:14;;;;;;;4.10;3.65;;;;;;;28.15;22.80;98800.19;5012524;28;20036;-79
2022/10/29 02:07:47;;;;;;;4.53;4.07;;;;;;;28.19;22.74;98802.91;5007839;28;20049;-79
2022/10/29 02:10:25;;;;;;;4.22;3.75;;;;;;;28.42;22.50;98799.84;5007643;28;20046;-79
2022/10/29 02:12:55;;;;;;;3.13;2.83;;;;;;;28.54;22.48;98790.63;5006331;28;20034;-78
2022/10/29 02:15:33;;;;;;;4.55;3.60;;;;;;;28.62;22.32;98792.03;4989574;28;20480;-78
2022/10/29 02:18:03;;;;;;;4.88;4.28;;;;;;;28.77;22.40;98790.38;5012269;28;20037;-79
2022/10/29 02:20:30;;;;;;;4.38;3.38;;;;;;;28.61;22.63;98784.81;5007484;28;20487;-78
2022/10/29 02:22:56;;;;;;;5.50;3.70;;;;;;;28.62;22.92;98780.72;5012312;28;20046;-78
2022/10/29 02:25:22;;;;;;;5.32;3.80;;;;;;;28.83;22.51;98777.25;4998408;28;20035;-78
2022/10/29 02:27:48;;;;;;;3.58;3.22;;;;;;;28.97;22.15;98773.19;5012677;28;20395;-78
2022/10/29 02:30:15;;;;;;;3.90;3.33;;;;;;;28.92;22.03;98779.41;5004912;28;20045;-79
2022/10/29 02:32:41;;;;;;;3.60;3.05;;;;;;;28.97;21.98;98774.00;5007167;28;20030;-79
2022/10/29 02:35:08;;;;;;;3.75;3.38;;;;;;;29.09;22.33;98787.34;5010311;28;20101;-79
2022/10/29 02:37:34;;;;;;;4.97;3.90;;;;;;;29.22;22.06;98778.94;5012760;28;20439;-79
2022/10/29 02:40:01;;;;;;;5.45;3.95;;;;;;;29.39;22.28;98781.16;5012030;28;20495;-80
2022/10/29 02:42:27;;;;;;;5.65;3.50;;;;;;;29.43;22.24;98773.34;5013036;28;20030;-79
2022/10/29 02:44:53;;;;;;;6.47;4.25;;;;;;;29.42;22.94;98779.47;5010606;28;20033;-79
2022/10/29 02:47:19;;;;;;;3.97;3.17;;;;;;;29.35;21.88;98774.03;5012678;28;20053;-79
2022/10/29 02:49:45;;;;;;;3.83;3.22;;;;;;;29.20;22.25;98770.88;5011472;28;20139;-79
2022/10/29 02:52:11;;;;;;;4.03;3.20;;;;;;;29.40;22.36;98773.47;5012909;28;20407;-79
2022/10/29 02:54:38;;;;;;;5.95;4.00;;;;;;;29.44;22.40;98779.81;5012725;28;20533;-79
2022/10/29 02:57:04;;;;;;;5.93;4.03;;;;;;;29.28;22.46;98786.38;5012755;28;20522;-80
2022/10/29 02:59:30;;;;;;;5.78;4.70;;;;;;;29.11;23.45;98784.88;5011671;28;20069;-80
2022/10/29 03:01:57;;;;;;;7.20;5.22;;;;;;;28.77;24.41;98776.25;5027314;28;20038;-80
2022/10/29 03:04:23;;;;;;;7.00;4.88;;;;;;;28.89;24.45;98781.13;5014957;28;20030;-80
2022/10/29 03:06:49;;;;;;;5.72;4.75;;;;;;;28.87;24.49;98777.16;5015142;28;20038;-80
2022/10/29 03:09:15;;;;;;;8.73;5.15;;;;;;;28.40;25.18;98772.03;5016037;28;20061;-80
2022/10/29 03:11:41;;;;;;;6.63;5.30;;;;;;;28.55;24.87;98780.91;5014590;28;20040;-79
2022/10/29 03:14:07;;;;;;;7.90;4.97;;;;;;;28.64;24.77;98776.22;5015386;28;20041;-80
2022/10/29 03:16:33;;;;;;;7.63;4.75;;;;;;;28.78;24.57;98765.75;5016279;28;20523;-80
2022/10/29 03:18:59;;;;;;;5.00;3.83;;;;;;;29.15;24.09;98771.41;5015402;28;20037;-79
2022/10/29 03:21:25;;;;;;;5.43;4.30;;;;;;;29.39;23.47;98764.19;5015257;28;20046;-79
2022/10/29 03:23:51;;;;;;;9.18;5.70;;;;;;;29.47;23.72;98769.63;5005739;28;20034;-79
2022/10/29 03:26:17;;;;;;;10.30;6.03;;;;;;;29.24;23.77;98771.53;5014513;28;20473;-80
2022/10/29 03:28:43;;;;;;;6.00;4.25;;;;;;;29.06;24.04;98771.28;5014921;28;20065;-79
2022/10/29 03:31:09;;;;;;;6.50;5.00;;;;;;;28.95;24.25;98767.22;5015422;28;20562;-79
2022/10/29 03:33:36;;;;;;;5.32;4.53;;;;;;;29.16;24.19;98770.16;5010980;28;20491;-79
2022/10/29 03:36:05;;;;;;;7.10;5.00;;;;;;;29.19;24.13;98763.66;5012822;28;20472;-80
2022/10/29 03:38:31;;;;;;;5.32;4.13;;;;;;;29.23;24.02;98758.66;5011353;28;20096;-79
2022/10/29 03:40:57;;;;;;;5.93;4.20;;;;;;;29.44;23.67;98762.81;5006923;28;20077;-79
2022/10/29 03:43:24;;;;;;;5.75;4.00;;;;;;;29.62;23.20;98757.34;5012802;28;20085;-79
2022/10/29 03:45:51;;;;;;;5.93;4.38;;;;;;;29.71;23.02;98757.44;5027703;28;20514;-79
2022/10/29 03:48:17;;;;;;;4.90;4.18;;;;;;;29.45;23.39;98760.78;5015443;28;20037;-80
2022/10/29 03:50:43;;;;;;;5.10;4.22;;;;;;;29.29;23.64;98768.16;5011599;28;20045;-79
2022/10/29 03:53:13;;;;;;;5.47;4.55;;;;;;;29.19;23.89;98769.31;5015487;28;20037;-80
2022/10/29 03:55:39;;;;;;;9.23;4.10;;;;;;;29.32;23.70;98767.25;5012784;28;20395;-79
2022/10/29 03:58:05;;;;;;;6.63;3.88;;;;;;;29.63;23.24;98749.66;5002759;28;20492;-79
2022/10/29 04:00:31;;;;;;;4.78;3.78;;;;;;;29.75;23.00;98768.66;5013491;28;20034;-79
2022/10/29 04:02:57;;;;;;;5.20;4.13;;;;;;;29.83;22.80;98753.03;5014880;28;20076;-80
2022/10/29 04:05:24;;;;;;;5.18;3.60;;;;;;;29.83;22.80;98759.50;5012740;28;20399;-79
2022/10/29 04:07:50;;;;;;;4.28;3.25;;;;;;;29.62;22.93;98756.56;5003551;28;20034;-79
2022/10/29 04:10:16;;;;;;;5.00;3.88;;;;;;;29.79;22.94;98746.72;5027524;28;20120;-80
2022/10/29 04:12:45;;;;;;;4.65;3.45;;;;;;;29.59;22.68;98741.31;5013772;28;20105;-80
2022/10/29 04:15:11;;;;;;;4.20;3.70;;;;;;;29.41;22.47;98747.53;5006730;28;20030;-80
2022/10/29 04:17:37;;;;;;;6.50;4.38;;;;;;;29.41;22.76;98749.56;5014246;28;20036;-79
2022/10/29 04:20:03;;;;;;;5.95;4.43;;;;;;;29.57;22.85;98751.50;5014313;28;20038;-79
2022/10/29 04:22:30;;;;;;;7.55;5.10;;;;;;;29.63;22.70;98756.13;5014622;28;20499;-80
2022/10/29 04:24:56;;;;;;;4.95;3.92;;;;;;;29.41;22.88;98763.72;5013775;28;20038;-80
2022/10/29 04:27:22;;;;;;;5.13;4.28;;;;;;;28.98;23.88;98769.16;5013901;28;20026;-79
2022/10/29 04:29:48;;;;;;;5.07;3.75;;;;;;;28.79;24.27;98781.44;5013356;28;20038;-80
2022/10/29 04:32:14;;;;;;;7.15;5.03;;;;;;;28.24;25.08;98774.16;5004856;28;20041;-80
2022/10/29 04:34:40;;;;;;;5.90;3.80;;;;;;;28.39;24.91;98775.31;5014571;28;20046;-80
2022/10/29 04:37:06;;;;;;;5.70;3.72;;;;;;;27.76;25.85;98769.34;5014327;28;20040;-80
2022/10/29 04:39:32;;;;;;;8.07;3.88;;;;;;;28.05;25.40;98767.41;5013490;28;20048;-80
2022/10/29 04:41:59;;;;;;;4.75;4.05;;;;;;;27.47;26.48;98771.31;5014534;28;20072;-80
2022/10/29 04:44:25;;;;;;;5.78;4.80;;;;;;;27.18;26.81;98760.69;5014280;28;20034;-80
2022/10/29 04:46:51;;;;;;;6.55;4.50;;;;;;;27.47;26.42;98766.44;5005669;28;20065;-80
2022/10/29 04:49:17;;;;;;;5.50;4.13;;;;;;;28.00;25.51;98765.13;5010797;28;20044;-80
2022/10/29 04:51:43;;;;;;;9.20;5.43;;;;;;;27.96;25.67;98782.09;5014454;28;20037;-79
2022/10/29 04:54:09;;;;;;;5.55;3.90;;;;;;;28.57;25.00;98769.94;5013698;28;20381;-79
2022/10/29 04:56:35;;;;;;;6.20;4.28;;;;;;;28.92;24.05;98771.72;5011935;28;20491;-79
2022/10/29 04:59:01;;;;;;;5.32;3.80;;;;;;;28.95;24.05;98764.38;4998091;28;20443;-79
2022/10/29 05:01:28;;;;;;;5.18;3.83;;;;;;;28.92;24.23;98757.59;4997990;28;20499;-79
2022/10/29 05:03:54;;;;;;;7.53;4.22;;;;;;;29.04;23.97;98770.94;5012856;28;20402;-79
2022/10/29 05:06:20;;;;;;;6.82;4.18;;;;;;;28.93;23.94;98776.16;5012354;28;20041;-79
2022/10/29 05:08:47;;;;;;;4.88;3.58;;;;;;;28.73;24.41;98769.88;5001650;28;20081;-80
2022/10/29 05:11:13;;;;;;;5.40;3.85;;;;;;;28.80;24.35;98783.03;5014085;28;20112;-79
2022/10/29 05:13:40;;;;;;;5.50;4.13;;;;;;;28.34;25.16;98787.16;5012210;28;20038;-80
2022/10/29 05:16:06;;;;;;;10.27;4.85;;;;;;;27.72;26.18;98780.75;5013768;28;20112;-80
2022/10/29 05:18:32;;;;;;;6.72;4.68;;;;;;;28.16;25.64;98773.53;5013199;28;20048;-80
2022/10/29 05:20:58;;;;;;;6.93;4.25;;;;;;;27.60;26.61;98781.44;5013634;28;20611;-80
2022/10/29 05:23:24;;;;;;;8.52;5.88;;;;;;;26.90;27.81;98783.88;5010135;28;20434;-80
2022/10/29 05:25:51;;;;;;;8.25;5.43;;;;;;;27.19;27.36;98790.47;5012547;28;20105;-80
2022/10/29 05:28:22;;;;;;;6.85;5.47;;;;;;;27.19;27.26;98789.69;5013791;28;20506;-80
2022/10/29 05:30:50;;;;;;;6.60;5.07;;;;;;;27.39;27.04;98788.41;5013664;28;20041;-80
2022/10/29 05:33:21;;;;;;;8.00;5.80;;;;;;;27.45;26.92;98799.94;5013633;28;20071;-79
2022/10/29 05:35:47;;;;;;;;;;;;;;;26.62;28.25;98801.38;5012915;28;20038;-79
2022/10/29 05:38:13;;;;;;;7.75;5.35;;;;;;;26.98;27.65;98799.41;5013517;28;20035;-80
2022/10/29 05:40:43;;;;;;;6.93;4.95;;;;;;;27.36;27.13;98791.28;5012852;28;20041;-80
2022/10/29 05:43:10;;;;;;;7.18;4.68;;;;;;;27.97;26.35;98780.88;5013068;28;20030;-80
2022/10/29 05:45:36;;;;;;;5.47;4.00;;;;;;;28.72;25.34;98777.59;5011740;28;20041;-80
2022/10/29 05:48:03;;;;;;;6.43;4.40;;;;;;;29.36;24.26;98772.78;5013355;28;20025;-80
2022/10/29 05:50:33;;;;;;;5.57;3.67;;;;;;;29.77;23.67;98752.84;5013555;28;20034;-80
2022/10/29 05:53:02;;;;;;;5.50;3.42;;;;;;;29.96;23.51;98750.97;5013552;28;20454;-80
2022/10/29 05:55:32;;;;;;;4.38;3.38;;;;;;;30.06;23.53;98742.06;5009732;28;20034;-80
2022/10/29 05:58:04;;;;;;;3.20;2.65;;;;;;;30.39;23.21;98727.56;5007054;28;20056;-80
2022/10/29 06:00:32;;;;;;;3.80;3.20;;;;;;;30.11;23.30;98722.94;5012882;28;20104;-80
2022/10/29 06:02:58;;;;;;;3.83;2.95;;;;;;;30.10;23.26;98716.47;5028370;28;20034;-80
2022/10/29 06:05:24;;;;;;;4.25;3.38;;;;;;;28.88;24.94;98734.31;5012092;28;20041;-80
2022/10/29 06:07:58;;;;;;;4.13;3.25;;;;;;;28.42;26.14;98735.69;5006936;28;20569;-80
2022/10/29 06:10:26;;;;;;;3.72;2.80;;;;;;;29.27;25.00;98733.88;5007975;28;20030;-80
2022/10/29 06:12:52;;;;;;;4.03;2.97;;;;;;;28.28;25.99;98775.63;5011522;28;20034;-80
2022/10/29 06:15:19;;;;;;;6.53;3.28;;;;;;;27.03;28.35;98795.25;5012284;28;20037;-80
2022/10/29 06:17:46;;;;;;;4.50;3.00;;;;;;;27.26;28.00;98787.47;5013003;28;20041;-80
2022/10/29 06:20:14;;;;;;;3.28;2.60;;;;;;;28.46;26.25;98772.28;5012211;28;20037;-80
2022/10/29 06:22:40;;;;;;;3.90;3.10;;;;;;;29.30;24.86;98771.78;5012551;28;20053;-80
2022/10/29 06:25:07;;;;;;;4.50;3.50;;;;;;;29.40;24.78;98785.59;5012101;28;20455;-80
2022/10/29 06:27:33;;;;;;;4.93;3.28;;;;;;;28.10;26.57;98788.66;5007481;28;20035;-80
2022/10/29 06:29:59;;;;;;;3.47;2.67;;;;;;;27.96;26.86;98793.38;4994326;28;20080;-80
2022/10/29 06:32:25;;;;;;;4.03;3.60;;;;;;;27.85;27.15;98797.72;4997859;28;20124;-80
2022/10/29 06:34:51;;;;;;;4.00;3.38;;;;;;;28.12;27.19;98795.44;5010346;28;20392;-81
2022/10/29 06:37:17;;;;;;;6.80;4.65;;;;;;;28.29;26.63;98794.13;5015223;28;20033;-80
2022/10/29 06:39:43;;;;;;;6.25;3.40;;;;;;;28.94;25.83;98796.75;5005821;28;20042;-80
2022/10/29 06:42:09;;;;;;;9.43;3.70;;;;;;;29.38;25.01;98790.88;4997297;28;20041;-80
2022/10/29 06:44:38;;;;;;;5.45;3.08;;;;;;;29.67;24.78;98787.13;5015796;28;20034;-80
2022/10/29 06:47:05;;;;;;;3.88;2.75;;;;;;;29.91;24.75;98786.31;5015478;28;20558;-80
2022/10/29 06:49:31;;;;;;;2.80;2.42;;;;;;;30.25;24.15;98788.34;5012917;28;20391;-81
2022/10/29 06:51:59;;;;;;;4.80;3.22;;;;;;;29.85;24.68;98790.97;5014301;28;20062;-80
2022/10/29 06:54:25;;;;;;;5.35;2.95;;;;;;;29.92;24.54;98790.72;5018333;28;20033;-80
2022/10/29 06:56:51;;;;;;;3.78;2.45;;;;;;;30.40;24.32;98792.28;5006497;28;20034;-80
2022/10/29 06:59:17;;;;;;;3.83;2.92;;;;;;;30.48;23.76;98810.59;5010202;28;20489;-80
2022/10/29 07:01:45;;;;;;;3.30;2.45;;;;;;;30.76;23.71;98798.22;5008769;28;20617;-79
2022/10/29 07:04:11;;;;;;;4.50;2.70;;;;;;;31.10;23.51;98813.56;5000210;28;20515;-79
2022/10/29 07:06:37;;;;;;;5.80;2.70;;;;;;;31.36;23.40;98812.13;5011267;28;20037;-79
2022/10/29 07:09:03;;;;;;;3.30;2.33;;;;;;;31.32;22.98;98817.94;5010689;28;20092;-80
2022/10/29 07:11:29;;;;;;;4.60;2.63;;;;;;;31.51;23.19;98815.22;5016134;28;20033;-79
2022/10/29 07:13:55;;;;;;;3.92;2.95;;;;;;;31.39;23.04;98820.47;5014549;28;20042;-80
2022/10/29 07:16:21;;;;;;;3.72;2.88;;;;;;;30.99;23.57;98828.19;5008878;28;20050;-80
2022/10/29 07:18:47;;;;;;;3.08;2.45;;;;;;;31.22;23.98;98822.00;5011636;28;20479;-80
2022/10/29 07:21:13;;;;;;;2.50;2.30;;;;;;;31.41;23.60;98820.81;5005884;28;20022;-80
2022/10/29 07:23:39;;;;;;;3.08;2.65;;;;;;;31.71;23.00;98824.09;5010994;28;20099;-80
2022/10/29 07:26:05;;;;;;;3.40;2.80;;;;;;;31.76;22.96;98832.81;5014776;28;20034;-78
2022/10/29 07:28:31;;;;;;;4.20;3.17;;;;;;;31.37;23.49;98836.41;5015071;28;20391;-78
2022/10/29 07:30:59;;;;;;;6.10;3.60;;;;;;;31.09;23.91;98840.34;5011715;28;20030;-78
2022/10/29 07:33:29;;;;;;;3.60;2.80;;;;;;;30.12;25.77;98847.09;5015527;28;20034;-78
2022/10/29 07:35:58;;;;;;;3.95;3.03;;;;;;;30.18;25.58;98847.31;5010857;28;20054;-81
2022/10/29 07:38:25;;;;;;;7.90;3.95;;;;;;;29.91;25.47;98857.13;5005223;28;20120;-79
2022/10/29 07:40:51;;;;;;;5.57;4.60;;;;;;;29.10;26.71;98851.16;5013607;28;20038;-79
2022/10/29 07:43:18;;;;;;;13.57;6.53;;;;;;;28.33;27.69;98847.72;5008135;28;20025;-79
2022/10/29 07:45:48;;;;;;;5.97;4.53;;;;;;;28.13;28.35;98858.34;5011579;28;20026;-79
2022/10/29 07:48:15;;;;;;;6.65;3.38;;;;;;;28.30;28.43;98854.25;5008414;28;20049;-81
2022/10/29 07:50:41;;;;;;;3.65;3.30;;;;;;;29.67;26.85;98849.41;5034594;28;20121;-81
2022/10/29 07:53:11;;;;;;;4.72;3.30;;;;;;;30.75;25.53;98844.03;5006340;28;20092;-80
2022/10/29 07:55:54;;;;;;;5.20;4.63;;;;;;;31.42;24.51;98849.97;5006468;28;20149;-80
2022/10/29 07:58:22;;;;;;;3.95;3.08;;;;;;;31.47;24.49;98857.94;5012000;28;20380;-80
2022/10/29 08:00:48;;;;;;;3.95;3.22;;;;;;;30.40;25.10;98854.63;5001864;28;20053;-81
2022/10/29 08:03:14;;;;;;;4.32;2.80;;;;;;;30.34;25.47;98862.13;5004370;28;20057;-80
2022/10/29 08:05:41;;;;;;;5.07;2.80;;;;;;;30.41;25.36;98866.78;5013111;28;20033;-81
2022/10/29 08:08:07;;;;;;;3.75;2.60;;;;;;;31.08;24.43;98855.81;5013169;28;20094;-80
2022/10/29 08:10:35;;;;;;;3.80;2.35;;;;;;;31.48;24.07;98853.84;5011133;28;20365;-80
2022/10/29 08:13:03;;;;;;;6.47;2.78;;;;;;;31.66;23.64;98864.47;5008091;28;20041;-80
2022/10/29 08:15:31;;;;;;;6.82;4.10;;;;;;;31.40;24.00;98861.00;5003301;28;20038;-80
2022/10/29 08:17:58;;;;;;;4.35;3.15;;;;;;;30.79;24.52;98867.38;5006934;28;20480;-80
2022/10/29 08:20:26;;;;;;;3.72;2.50;;;;;;;31.00;25.09;98865.81;5013795;28;20030;-81
2022/10/29 08:22:52;;;;;;;4.22;2.75;;;;;;;30.96;24.97;98871.66;5014681;28;20571;-81
2022/10/29 08:25:19;;;;;;;4.68;3.00;;;;;;;30.75;24.98;98872.41;5012949;28;20031;-80
2022/10/29 08:27:56;;;;;;;5.70;2.80;;;;;;;30.30;25.69;98869.13;5013361;28;20052;-80
2022/10/29 08:30:22;;;;;;;3.83;2.92;;;;;;;29.27;27.26;98869.66;5008218;28;20037;-80
2022/10/29 08:32:48;;;;;;;5.18;3.00;;;;;;;29.17;27.30;98870.72;5014595;28;20037;-81
2022/10/29 08:35:15;;;;;;;5.82;4.13;;;;;;;28.83;28.02;98866.91;5014532;28;20036;-81
2022/10/29 08:37:42;;;;;;;3.40;2.53;;;;;;;29.09;28.06;98877.84;5012097;28;20036;-81
2022/10/29 08:40:31;;;;;;;6.25;4.25;;;;;;;28.86;28.33;98872.47;5014608;28;20080;-80
2022/10/29 08:43:18;;;;;;;5.60;3.13;;;;;;;28.89;28.07;98882.09;5014931;28;20058;-80
2022/10/29 08:45:53;;;;;;;4.03;2.88;;;;;;;29.23;27.64;98885.94;5009105;28;20069;-80
2022/10/29 08:48:25;;;;;;;4.22;3.13;;;;;;;29.63;26.50;98877.03;5012426;28;20514;-79
2022/10/29 08:51:11;;;;;;;3.70;2.95;;;;;;;29.83;27.05;98883.28;5013358;28;20045;-80
2022/10/29 08:53:48;;;;;;;3.55;2.80;;;;;;;28.93;28.67;98886.41;5014379;28;20414;-80
2022/10/29 08:56:20;;;;;;;4.93;2.95;;;;;;;29.22;27.72;98877.94;5029423;28;20438;-80
2022/10/29 08:59:00;;;;;;;4.72;3.03;;;;;;;29.43;27.19;98863.88;5012453;28;20103;-80
2022/10/29 09:01:26;;;;;;;3.60;2.90;;;;;;;29.84;26.21;98870.72;4994287;28;20049;-80
2022/10/29 09:03:53;;;;;;;3.13;2.20;;;;;;;30.71;25.64;98872.53;5035536;28;20144;-80
2022/10/29 09:06:25;;;;;;;4.68;2.42;;;;;;;30.77;25.71;98876.38;5014050;28;20454;-80
2022/10/29 09:09:10;;;;;;;3.35;2.70;;;;;;;31.23;25.02;98868.97;5025650;28;20033;-81
2022/10/29 09:12:04;;;;;;;2.65;2.10;;;;;;;31.69;25.20;98874.91;5012076;28;20034;-81
2022/10/29 09:14:47;;;;;;;3.17;2.13;;;;;;;32.26;24.32;98873.34;5009631;28;20026;-81
2022/10/29 09:18:04;;;;;;;2.13;1.92;;;;;;;32.66;24.46;98869.13;5008849;28;20038;-81
2022/10/29 09:20:55;;;;;;;3.20;1.63;;;;;;;32.83;23.78;98872.44;5003071;28;20153;-81
2022/10/29 09:23:47;;;;;;;2.75;2.10;;;;;;;32.79;23.75;98873.88;5003159;28;20038;-80
2022/10/29 09:26:30;;;;;;;5.07;1.92;;;;;;;33.21;23.92;98864.19;5013799;28;20380;-79
2022/10/29 09:29:36;;;;;;;1.70;1.60;;;;;;;33.28;23.53;98868.78;5013161;28;20483;-80
2022/10/29 09:32:26;;;;;;;3.72;2.35;;;;;;;33.19;23.43;98858.19;5012923;28;20030;-80
2022/10/29 09:35:01;;;;;;;2.50;1.50;;;;;;;33.48;22.43;98853.97;5003410;28;20384;-81
2022/10/29 09:37:40;;;;;;;5.30;2.10;;;;;;;33.30;23.07;98849.91;5005138;28;20109;-81
2022/10/29 09:40:35;;;;;;;4.35;1.90;;;;;;;33.39;23.43;98849.13;5007296;28;20030;-79
2022/10/29 09:43:27;;;;;;;3.65;1.60;;;;;;;33.49;23.18;98844.97;5010461;28;20137;-79
2022/10/29 09:46:05;;;;;;;3.00;1.77;;;;;;;33.67;23.22;98850.63;5008858;28;20040;-78
2022/10/29 09:48:33;;;;;;;3.28;1.77;;;;;;;33.36;23.39;98852.91;5003723;28;20523;-78
2022/10/29 09:51:41;;;;;;;2.40;1.70;;;;;;;33.53;22.47;98847.66;5007047;28;20034;-78
2022/10/29 09:54:08;;;;;;;1.88;1.23;;;;;;;33.06;24.20;98865.34;5003643;28;20082;-79
2022/10/29 09:56:34;;;;;;;2.30;1.50;;;;;;;32.28;25.17;98854.56;5008257;28;20038;-80
2022/10/29 09:59:35;;;;;;;1.60;1.27;;;;;;;31.63;26.41;98851.19;5011393;28;20034;-80
2022/10/29 10:02:01;;;;;;;5.50;2.75;;;;;;;31.97;24.76;98840.44;5011881;28;20134;-80
2022/10/29 10:04:38;;;;;;;1.85;1.42;;;;;;;31.55;26.88;98830.84;5011506;28;20037;-80
2022/10/29 10:07:08;;;;;;;2.85;1.90;;;;;;;32.00;25.05;98838.72;5004250;28;20081;-80
2022/10/29 10:09:52;;;;;;;3.90;1.52;;;;;;;31.19;27.57;98825.75;5008377;28;20395;-80
2022/10/29 10:12:21;;;;;;;4.47;2.10;;;;;;;31.07;27.04;98832.31;5013446;28;20041;-80
2022/10/29 10:14:48;;;;;;;2.90;2.15;;;;;;;30.11;30.10;98847.56;4999146;28;20400;-78
2022/10/29 10:17:14;;;;;;;5.95;2.90;;;;;;;29.53;32.09;98830.84;5017063;28;20388;-80
2022/10/29 10:19:45;;;;;;;2.92;2.60;;;;;;;29.85;28.99;98839.09;5010636;28;20030;-79
2022/10/29 10:22:20;;;;;;;7.65;2.33;;;;;;;29.97;28.58;98832.63;5016260;28;20093;-79
2022/10/29 10:24:47;;;;;;;4.78;2.30;;;;;;;29.94;30.87;98827.88;5010053;28;20081;-80
2022/10/29 10:27:28;;;;;;;4.55;2.35;;;;;;;30.54;27.25;98830.66;5015819;28;20113;-80
2022/10/29 10:30:16;;;;;;;2.15;1.70;;;;;;;32.16;25.72;98823.44;5014225;28;20033;-81
2022/10/29 10:32:42;;;;;;;2.95;1.70;;;;;;;31.73;25.88;98818.75;5015305;28;20493;-81
2022/10/29 10:35:29;;;;;;;1.83;1.70;;;;;;;32.01;26.11;98814.75;5015493;28;20034;-81
2022/10/29 10:37:57;;;;;;;3.15;1.60;;;;;;;32.40;25.59;98815.88;5015553;28;20026;-80
2022/10/29 10:40:24;;;;;;;2.33;1.45;;;;;;;33.00;24.53;98816.75;5013587;28;20041;-80
2022/10/29 10:42:53;;;;;;;2.80;1.65;;;;;;;32.74;24.48;98813.50;5012866;28;20026;-80
2022/10/29 10:45:34;;;;;;;2.25;1.40;;;;;;;32.74;25.50;98807.03;5007821;28;20487;-80
2022/10/29 10:48:00;;;;;;;;;;;;;;;32.51;23.54;98805.63;5014319;28;20499;-81
2022/10/29 10:50:36;;;;;;;3.25;1.60;;;;;;;31.37;27.02;98791.78;5012496;28;20007;-80
2022/10/29 10:53:13;;;;;;;3.45;1.90;;;;;;;30.91;28.01;98797.69;5015535;28;20026;-81
2022/10/29 10:55:45;;;;;;;1.75;1.30;;;;;;;31.33;28.62;98790.34;5013878;28;20042;-79
2022/10/29 10:58:30;;;;;;;3.72;1.50;;;;;;;32.02;27.29;98790.75;5007747;28;20026;-81
2022/10/29 11:01:12;;;;;;;3.45;1.50;;;;;;;32.79;27.27;98780.81;5007377;28;20038;-79
2022/10/29 11:03:47;;;;;;;6.82;1.90;;;;;;;32.27;25.63;98781.94;5004893;28;20022;-80
2022/10/29 11:06:34;;;;;;;1.75;1.52;;;;;;;32.44;27.47;98780.31;5007010;28;20454;-80
2022/10/29 11:09:24;;;;;;;5.70;2.15;;;;;;;31.59;26.07;98782.41;5001769;28;20038;-80
2022/10/29 11:12:14;;;;;;;2.08;1.20;;;;;;;32.65;24.96;98776.53;5027308;28;20022;-82
2022/10/29 11:14:56;;;;;;;3.93;1.77;;;;;;;31.48;29.09;98780.03;5013706;28;20049;-81
2022/10/29 11:17:50;;;;;;;5.00;1.98;;;;;;;30.82;26.52;98769.25;5015646;28;20095;-81
2022/10/29 11:20:30;;;;;;;3.90;1.80;;;;;;;31.14;27.35;98761.09;5009141;28;20030;-80
2022/10/29 11:23:20;;;;;;;3.70;1.90;;;;;;;31.00;30.11;98772.22;5011640;28;20050;-81
2022/10/29 11:26:31;;;;;;;3.60;1.55;;;;;;;31.13;25.39;98761.59;5015403;28;20505;-81
2022/10/29 11:29:30;;;;;;;4.80;2.40;;;;;;;31.63;26.78;98763.19;5006343;28;20048;-81
2022/10/29 11:32:07;;;;;;;7.70;2.00;;;;;;;31.51;28.92;98752.75;5007573;28;20072;-80
2022/10/29 11:34:51;;;;;;;3.38;1.60;;;;;;;32.50;25.01;98752.09;5014151;28;20040;-80
2022/10/29 11:37:23;;;;;;;4.45;1.95;;;;;;;32.77;24.11;98754.88;5013458;28;20038;-80
2022/10/29 11:39:58;;;;;;;5.35;1.73;;;;;;;33.75;23.60;98748.50;5015148;28;20073;-81
2022/10/29 11:42:25;;;;;;;4.30;1.83;;;;;;;32.97;24.50;98748.66;5010961;28;20107;-81
2022/10/29 11:44:51;;;;;;;3.15;1.85;;;;;;;32.91;26.07;98753.44;5014604;28;20574;-81
2022/10/29 11:47:37;;;;;;;2.45;1.48;;;;;;;33.74;23.47;98747.72;5011386;28;20096;-82
2022/10/29 11:50:22;;;;;;;3.35;1.73;;;;;;;32.69;25.24;98753.63;5013302;28;20040;-83
2022/10/29 11:52:57;;;;;;;4.07;1.98;;;;;;;31.91;27.58;98759.13;5010407;28;20045;-82
2022/10/29 11:55:42;;;;;;;5.00;1.95;;;;;;;32.61;26.00;98758.84;5012047;28;20037;-82